Terminal Aerodrome Forecast
Issued by NWS

Home | Current Version | Previous Version | Text Only | Print | Product List | Glossary On
Versions: 1 2 3 4 5 6 7 8 9 10 11 12 13 14 15 16
000
FTAK31 PAFA 222340
TAFAFA
TAF
PAFA 222340Z 2300/2406 28009KT P6SM VCTS SCT080CB SCT200
     FM230600 VRB03KT P6SM SCT080 BKN200
     FM232200 26009KT P6SM VCTS BKN080CB BKN150=

USA.gov is the U.S. government's official web portal to all federal, state and local government web resources and services.